York — WDF7289 — position and weather

sailwx.info

Track history (hours):
 
Tides and Currents Weather Stations Pressure Air Temp Water Temp Dewpoint Dewpoint Depression Visibility Wind Speed Wind Dir Waves Ship Positions

York

Owner: BillyBey Ferry Company, Weehawken, NJ. More information available from US FCC via Universal Licensing System and Coast Guard Vessel Documentation Center.

Last reported at 2018-Jun-22 00:27 UTC. Time now 2018-Jun-22 01:30 UTC.
Position N 40°44' W 074°02'.

Length 24 m; draft 2 m.

Type: Passenger vessel. MMSI: 367482990.

Date/timePositionNaut miles runAvg speedWind from/ knotsBaromVisibWave heightAir tempDewpointWater temp
2018-Jun-22 00:27N 40°44' W 074°02'2 4.3
2018-Jun-21 23:56N 40°46' W 074°01'3 8.2
2018-Jun-21 23:30N 40°43' W 074°02'0 0.3
2018-Jun-21 23:00N 40°43' W 074°02'0 0.1
2018-Jun-21 22:30N 40°43' W 074°02'0 0.2
2018-Jun-21 22:00N 40°43' W 074°02'0 0.3
2018-Jun-21 21:30N 40°43' W 074°02'0 0.0
2018-Jun-21 21:00N 40°43' W 074°02'0 0.0
2018-Jun-21 20:30N 40°43' W 074°02'0 0.0
2018-Jun-21 20:00N 40°43' W 074°02'0 0.2
2018-Jun-21 19:30N 40°43' W 074°02'0 0.2
2018-Jun-21 19:00N 40°43' W 074°02'0 0.1
2018-Jun-21 18:30N 40°43' W 074°02'0 0.2
2018-Jun-21 18:01N 40°43' W 074°02'0 0.2
2018-Jun-21 17:30N 40°43' W 074°02'0 0.0
2018-Jun-21 17:00N 40°43' W 074°02'0 0.0
2018-Jun-21 16:30N 40°43' W 074°02'0 0.1
2018-Jun-21 16:00N 40°43' W 074°02'0 0.0
2018-Jun-21 15:31N 40°43' W 074°02'0 0.1
2018-Jun-21 15:00N 40°43' W 074°02'0 0.0
2018-Jun-21 14:30N 40°43' W 074°02'0 0.1
2018-Jun-21 14:00N 40°43' W 074°02'0 0.0
2018-Jun-21 13:30N 40°43' W 074°02'0 0.1
2018-Jun-21 13:00N 40°43' W 074°02'0 0.2
2018-Jun-21 12:30N 40°43' W 074°02'0 0.0
2018-Jun-21 12:00N 40°43' W 074°02'0 0.0
2018-Jun-21 11:30N 40°43' W 074°02'0 0.0
2018-Jun-21 11:00N 40°43' W 074°02'0 0.0
2018-Jun-21 10:30N 40°43' W 074°02'0 0.1
2018-Jun-21 10:00N 40°43' W 074°02'1 2.6
2018-Jun-21 09:30N 40°44' W 074°02'0 0.0
2018-Jun-21 03:10N 40°44' W 074°02'1 8.4
2018-Jun-21 03:01N 40°43' W 074°01'0 0.8
2018-Jun-21 02:30N 40°43' W 074°02'1 1.0
2018-Jun-21 01:59N 40°43' W 074°01'1 1.1
2018-Jun-21 01:31N 40°43' W 074°02'1 1.0
2018-Jun-21 01:00N 40°43' W 074°01'1 1.2
2018-Jun-21 00:30N 40°43' W 074°02'1 1.1
2018-Jun-21 00:00N 40°43' W 074°01'0 0.0
2018-Jun-20 23:30N 40°43' W 074°01'0 0.2
2018-Jun-20 23:01N 40°43' W 074°01'0 0.0
2018-Jun-20 22:30N 40°43' W 074°01'0 0.0
2018-Jun-20 22:00N 40°43' W 074°01'0 0.0
2018-Jun-20 21:30N 40°43' W 074°01'0 0.0
2018-Jun-20 21:00N 40°43' W 074°01'0 0.0
2018-Jun-20 20:30N 40°43' W 074°01'0 0.1
2018-Jun-20 20:00N 40°43' W 074°01'0 0.1
2018-Jun-20 19:30N 40°43' W 074°01'0 0.0
2018-Jun-20 19:00N 40°43' W 074°01'0 0.0
2018-Jun-20 18:30N 40°43' W 074°01'0 0.0
2018-Jun-20 18:01N 40°43' W 074°01'0 0.0
2018-Jun-20 17:31N 40°43' W 074°01'0 0.0
2018-Jun-20 17:01N 40°43' W 074°01'0 0.0
2018-Jun-20 16:31N 40°43' W 074°01'0 0.0
2018-Jun-20 16:01N 40°43' W 074°01'0 0.0
2018-Jun-20 15:30N 40°43' W 074°01'0 0.0
2018-Jun-20 15:00N 40°43' W 074°01'0 0.0
2018-Jun-20 14:30N 40°43' W 074°01'0 0.0
2018-Jun-20 14:00N 40°43' W 074°01'0 0.0
2018-Jun-20 13:30N 40°43' W 074°01'0 0.1
2018-Jun-20 13:00N 40°43' W 074°01'0 0.1
2018-Jun-20 12:30N 40°43' W 074°01'0 0.0
2018-Jun-20 12:00N 40°43' W 074°01'0 0.0
2018-Jun-20 11:30N 40°43' W 074°01'0 0.0
2018-Jun-20 11:00N 40°43' W 074°01'0 0.0
2018-Jun-20 10:31N 40°43' W 074°01'1 2.6
2018-Jun-20 10:00N 40°44' W 074°02'0 0.0
2018-Jun-20 00:25N 40°44' W 074°02'2 3.7
2018-Jun-19 23:48N 40°46' W 074°01'411.8
2018-Jun-19 23:30N 40°43' W 074°02'0 0.3
2018-Jun-19 23:00N 40°43' W 074°02'0 0.1
2018-Jun-19 22:30N 40°43' W 074°02'0 0.1
2018-Jun-19 22:00N 40°43' W 074°02'0 0.0
2018-Jun-19 21:30N 40°43' W 074°02'0 0.1
2018-Jun-19 21:00N 40°43' W 074°02'0 0.1
2018-Jun-19 20:30N 40°43' W 074°02'0 0.1
2018-Jun-19 20:00N 40°43' W 074°02'0 0.1
2018-Jun-19 19:30N 40°43' W 074°02'0 0.1
2018-Jun-19 19:00N 40°43' W 074°02'0 0.1
2018-Jun-19 18:30N 40°43' W 074°02'0 0.1
2018-Jun-19 18:00N 40°43' W 074°02'0 0.0
2018-Jun-19 17:30N 40°43' W 074°02'0 0.0
2018-Jun-19 17:00N 40°43' W 074°02'0 0.1
2018-Jun-19 16:30N 40°43' W 074°02'0 0.1
2018-Jun-19 16:00N 40°43' W 074°02'0 0.1
2018-Jun-19 15:30N 40°43' W 074°02'0 0.0
2018-Jun-19 15:00N 40°43' W 074°02'0 0.1
2018-Jun-19 14:30N 40°43' W 074°02'0 0.0
2018-Jun-19 14:00N 40°43' W 074°02'0 0.0
2018-Jun-19 13:30N 40°43' W 074°02'0 0.1
2018-Jun-19 13:00N 40°43' W 074°02'0 0.0
2018-Jun-19 12:30N 40°43' W 074°02'0 0.0
2018-Jun-19 12:00N 40°43' W 074°02'0 0.2
2018-Jun-19 11:30N 40°43' W 074°02'0 0.0
2018-Jun-19 11:00N 40°43' W 074°02'0 0.2
2018-Jun-19 10:30N 40°43' W 074°02'0 0.0
2018-Jun-19 10:00N 40°43' W 074°02'1 0.2
2018-Jun-19 03:09N 40°44' W 074°02'1 8.8
2018-Jun-19 03:01N 40°43' W 074°01'0 1.0
2018-Jun-19 02:30N 40°43' W 074°02'0 0.9
2018-Jun-19 02:00N 40°43' W 074°01'1 1.0
2018-Jun-19 01:30N 40°43' W 074°02'0 1.0
2018-Jun-19 01:00N 40°43' W 074°01'0 1.0
2018-Jun-19 00:31N 40°43' W 074°02'0 0.9
2018-Jun-19 00:01N 40°43' W 074°01'1 1.1
2018-Jun-18 23:31N 40°43' W 074°02'0 0.1
2018-Jun-18 23:00N 40°43' W 074°02'0 0.2
2018-Jun-18 22:30N 40°43' W 074°02'0 0.1
2018-Jun-18 22:00N 40°43' W 074°02'0 0.1
2018-Jun-18 21:30N 40°43' W 074°02'0 0.0
2018-Jun-18 21:01N 40°43' W 074°02'0 0.0
2018-Jun-18 20:31N 40°43' W 074°02'0 0.0
2018-Jun-18 20:01N 40°43' W 074°02'0 0.1
2018-Jun-18 19:30N 40°43' W 074°02'0 0.1
2018-Jun-18 19:00N 40°43' W 074°02'0 0.9
2018-Jun-18 18:30N 40°43' W 074°01'3 6.4
2018-Jun-18 17:59N 40°46' W 074°01'0 0.0
2018-Jun-18 00:57N 40°46' W 074°01'  
2018-Jun-15 19:55N 40°46' W 074°01'0 0.0
2018-Jun-15 19:11N 40°46' W 074°01'0 0.0
2018-Jun-15 18:59N 40°46' W 074°01'0 0.0
2018-Jun-15 18:20N 40°46' W 074°01'0 0.0
2018-Jun-15 18:00N 40°46' W 074°01'0 0.0
2018-Jun-15 17:28N 40°46' W 074°01'0 0.0
2018-Jun-15 17:00N 40°46' W 074°01'0 0.0
2018-Jun-15 16:29N 40°46' W 074°01'0 0.0
2018-Jun-15 15:59N 40°46' W 074°01'0 0.0
2018-Jun-15 15:17N 40°46' W 074°01'0 0.0
2018-Jun-15 14:58N 40°46' W 074°01'0 0.0
2018-Jun-15 14:07N 40°46' W 074°01'0 0.0
2018-Jun-15 12:59N 40°46' W 074°01'4 7.4
2018-Jun-15 12:30N 40°43' W 074°02'0 0.0
2018-Jun-15 12:00N 40°43' W 074°02'0 0.0
2018-Jun-15 11:30N 40°43' W 074°02'0 0.2
2018-Jun-15 11:01N 40°43' W 074°02'0 0.1
2018-Jun-15 10:30N 40°43' W 074°02'0 0.1
2018-Jun-15 10:00N 40°43' W 074°02'1 0.2
2018-Jun-15 03:10N 40°44' W 074°02'1 7.8
2018-Jun-15 03:00N 40°43' W 074°01'1 1.1
2018-Jun-15 02:30N 40°43' W 074°02'1 1.1
2018-Jun-15 02:00N 40°43' W 074°01'1 1.1
2018-Jun-15 01:30N 40°43' W 074°02'1 1.3
2018-Jun-15 01:00N 40°43' W 074°01'1 1.2
2018-Jun-15 00:30N 40°43' W 074°02'1 1.3
2018-Jun-15 00:00N 40°43' W 074°01'0 0.1
2018-Jun-14 23:30N 40°43' W 074°01'0 0.1
2018-Jun-14 23:00N 40°43' W 074°01'0 0.0
2018-Jun-14 22:30N 40°43' W 074°01'0 0.1
2018-Jun-14 22:00N 40°43' W 074°01'0 0.0
2018-Jun-14 21:30N 40°43' W 074°01'0 0.1
2018-Jun-14 21:00N 40°43' W 074°01'0 0.1
2018-Jun-14 20:30N 40°43' W 074°01'0 0.1
2018-Jun-14 20:00N 40°43' W 074°01'0 0.0
2018-Jun-14 19:31N 40°43' W 074°01'0 0.1
2018-Jun-14 19:00N 40°43' W 074°01'0 0.1
2018-Jun-14 18:30N 40°43' W 074°01'0 0.0
2018-Jun-14 18:00N 40°43' W 074°01'0 0.0
2018-Jun-14 17:30N 40°43' W 074°01'0 0.0
2018-Jun-14 17:00N 40°43' W 074°01'0 0.0
2018-Jun-14 16:30N 40°43' W 074°01'0 0.0
2018-Jun-14 16:00N 40°43' W 074°01'0 0.0
2018-Jun-14 15:30N 40°43' W 074°01'0 0.0
2018-Jun-14 15:00N 40°43' W 074°01'0 0.0
2018-Jun-14 14:30N 40°43' W 074°01'0 0.0
2018-Jun-14 14:00N 40°43' W 074°01'0 0.0
2018-Jun-14 13:30N 40°43' W 074°01'0 0.0
2018-Jun-14 13:00N 40°43' W 074°01'0 0.1
2018-Jun-14 12:30N 40°43' W 074°01'0 0.0
2018-Jun-14 12:00N 40°43' W 074°01'0 0.0
2018-Jun-14 11:30N 40°43' W 074°01'0 0.0
2018-Jun-14 11:00N 40°43' W 074°01'0 0.0
2018-Jun-14 10:30N 40°43' W 074°01'1 2.6
2018-Jun-14 10:00N 40°44' W 074°02'0 0.0
2018-Jun-14 00:29N 40°44' W 074°02'2 4.6
2018-Jun-14 00:00N 40°46' W 074°01'4 7.2
2018-Jun-13 23:30N 40°43' W 074°02'0 0.1
2018-Jun-13 23:00N 40°43' W 074°02'0 0.1
2018-Jun-13 22:30N 40°43' W 074°02'0 0.1
2018-Jun-13 22:00N 40°43' W 074°02'0 0.1
2018-Jun-13 21:31N 40°43' W 074°02'0 0.1
2018-Jun-13 21:01N 40°43' W 074°02'0 0.0
2018-Jun-13 20:31N 40°43' W 074°02'0 0.0
2018-Jun-13 20:00N 40°43' W 074°02'0 0.1
2018-Jun-13 19:30N 40°43' W 074°02'0 0.1
2018-Jun-13 19:00N 40°43' W 074°02'0 0.0
2018-Jun-13 18:30N 40°43' W 074°02'0 0.1
2018-Jun-13 18:00N 40°43' W 074°02'0 0.2
2018-Jun-13 17:30N 40°43' W 074°02'0 0.1
2018-Jun-13 17:01N 40°43' W 074°02'0 0.1
2018-Jun-13 16:31N 40°43' W 074°02'0 0.1
2018-Jun-13 16:01N 40°43' W 074°02'0 0.0
2018-Jun-13 15:30N 40°43' W 074°02'0 0.1
2018-Jun-13 15:01N 40°43' W 074°02'0 0.0
2018-Jun-13 14:30N 40°43' W 074°02'0 0.0
2018-Jun-13 14:00N 40°43' W 074°02'0 0.2
2018-Jun-13 13:30N 40°43' W 074°02'0 0.1
2018-Jun-13 13:00N 40°43' W 074°02'0 0.2
2018-Jun-13 12:30N 40°43' W 074°02'0 0.0
2018-Jun-13 12:00N 40°43' W 074°02'0 0.1
2018-Jun-13 11:30N 40°43' W 074°02'0 0.1
2018-Jun-13 11:00N 40°43' W 074°02'0 0.1
2018-Jun-13 10:30N 40°43' W 074°02'0 0.1
2018-Jun-13 10:00N 40°43' W 074°02'1 0.2
2018-Jun-13 03:11N 40°44' W 074°02'1 7.5
2018-Jun-13 03:00N 40°43' W 074°01'0 0.9
2018-Jun-13 02:30N 40°43' W 074°02'0 1.0
2018-Jun-13 02:01N 40°43' W 074°01'1 1.2
2018-Jun-13 01:30N 40°43' W 074°02'1 1.3
2018-Jun-13 01:00N 40°43' W 074°01'0 1.0
2018-Jun-13 00:31N 40°43' W 074°02'0 1.0
2018-Jun-13 00:00N 40°43' W 074°01'0 0.1
2018-Jun-12 23:31N 40°43' W 074°01'0 0.1
2018-Jun-12 23:01N 40°43' W 074°01'0 0.0
2018-Jun-12 22:30N 40°43' W 074°01'0 0.0
2018-Jun-12 22:00N 40°43' W 074°01'0 0.1
2018-Jun-12 21:30N 40°43' W 074°01'0 0.1
2018-Jun-12 21:01N 40°43' W 074°01'1 1.8
2018-Jun-12 20:30N 40°44' W 074°01'0 0.7
2018-Jun-12 20:00N 40°44' W 074°02'0 0.0
2018-Jun-12 19:26N 40°44' W 074°02'0 0.0
2018-Jun-12 19:00N 40°44' W 074°02'1 2.3
2018-Jun-12 18:30N 40°43' W 074°02'1 1.2
2018-Jun-12 18:00N 40°43' W 074°01'0 0.0
2018-Jun-12 17:30N 40°43' W 074°01'0 0.0
2018-Jun-12 17:00N 40°43' W 074°01'0 0.0
2018-Jun-12 16:30N 40°43' W 074°01'0 0.0
2018-Jun-12 16:00N 40°43' W 074°01'0 0.0
2018-Jun-12 15:30N 40°43' W 074°01'0 0.0
2018-Jun-12 15:00N 40°43' W 074°01'0 0.0
2018-Jun-12 14:30N 40°43' W 074°01'0 0.0
2018-Jun-12 14:00N 40°43' W 074°01'0 0.0
2018-Jun-12 13:30N 40°43' W 074°01'0 0.0
2018-Jun-12 13:00N 40°43' W 074°01'0 0.0
2018-Jun-12 12:30N 40°43' W 074°01'0 0.0
2018-Jun-12 12:00N 40°43' W 074°01'0 0.0
2018-Jun-12 11:30N 40°43' W 074°01'0 0.0
2018-Jun-12 11:00N 40°43' W 074°01'0 0.0
2018-Jun-12 10:30N 40°43' W 074°01'1 2.6
2018-Jun-12 10:00N 40°44' W 074°02'0 0.0
2018-Jun-12 00:49N 40°44' W 074°02'2 6.7
2018-Jun-12 00:29N 40°46' W 074°01'  
Track history (hours):
 
Tides and Currents Weather Stations Pressure Air Temp Water Temp Dewpoint Dewpoint Depression Visibility Wind Speed Wind Dir Waves Ship Positions

York

Owner: BillyBey Ferry Company, Weehawken, NJ. More information available from US FCC via Universal Licensing System and Coast Guard Vessel Documentation Center.

Last reported at 2018-Jun-22 00:27 UTC. Time now 2018-Jun-22 01:30 UTC.
Position N 40°44' W 074°02'.

Length 24 m; draft 2 m.

Type: Passenger vessel. MMSI: 367482990.

Date/timePositionNaut miles runAvg speedWind from/ knotsBaromVisibWave heightAir tempDewpointWater temp
2018-Jun-22 00:27N 40°44' W 074°02'2 4.3
2018-Jun-21 23:56N 40°46' W 074°01'3 8.2
2018-Jun-21 23:30N 40°43' W 074°02'0 0.3
2018-Jun-21 23:00N 40°43' W 074°02'0 0.1
2018-Jun-21 22:30N 40°43' W 074°02'0 0.2
2018-Jun-21 22:00N 40°43' W 074°02'0 0.3
2018-Jun-21 21:30N 40°43' W 074°02'0 0.0
2018-Jun-21 21:00N 40°43' W 074°02'0 0.0
2018-Jun-21 20:30N 40°43' W 074°02'0 0.0
2018-Jun-21 20:00N 40°43' W 074°02'0 0.2
2018-Jun-21 19:30N 40°43' W 074°02'0 0.2
2018-Jun-21 19:00N 40°43' W 074°02'0 0.1
2018-Jun-21 18:30N 40°43' W 074°02'0 0.2
2018-Jun-21 18:01N 40°43' W 074°02'0 0.2
2018-Jun-21 17:30N 40°43' W 074°02'0 0.0
2018-Jun-21 17:00N 40°43' W 074°02'0 0.0
2018-Jun-21 16:30N 40°43' W 074°02'0 0.1
2018-Jun-21 16:00N 40°43' W 074°02'0 0.0
2018-Jun-21 15:31N 40°43' W 074°02'0 0.1
2018-Jun-21 15:00N 40°43' W 074°02'0 0.0
2018-Jun-21 14:30N 40°43' W 074°02'0 0.1
2018-Jun-21 14:00N 40°43' W 074°02'0 0.0
2018-Jun-21 13:30N 40°43' W 074°02'0 0.1
2018-Jun-21 13:00N 40°43' W 074°02'0 0.2
2018-Jun-21 12:30N 40°43' W 074°02'0 0.0
2018-Jun-21 12:00N 40°43' W 074°02'0 0.0
2018-Jun-21 11:30N 40°43' W 074°02'0 0.0
2018-Jun-21 11:00N 40°43' W 074°02'0 0.0
2018-Jun-21 10:30N 40°43' W 074°02'0 0.1
2018-Jun-21 10:00N 40°43' W 074°02'1 2.6
2018-Jun-21 09:30N 40°44' W 074°02'0 0.0
2018-Jun-21 03:10N 40°44' W 074°02'1 8.4
2018-Jun-21 03:01N 40°43' W 074°01'0 0.8
2018-Jun-21 02:30N 40°43' W 074°02'1 1.0
2018-Jun-21 01:59N 40°43' W 074°01'1 1.1
2018-Jun-21 01:31N 40°43' W 074°02'1 1.0
2018-Jun-21 01:00N 40°43' W 074°01'1 1.2
2018-Jun-21 00:30N 40°43' W 074°02'1 1.1
2018-Jun-21 00:00N 40°43' W 074°01'0 0.0
2018-Jun-20 23:30N 40°43' W 074°01'0 0.2
2018-Jun-20 23:01N 40°43' W 074°01'0 0.0
2018-Jun-20 22:30N 40°43' W 074°01'0 0.0
2018-Jun-20 22:00N 40°43' W 074°01'0 0.0
2018-Jun-20 21:30N 40°43' W 074°01'0 0.0
2018-Jun-20 21:00N 40°43' W 074°01'0 0.0
2018-Jun-20 20:30N 40°43' W 074°01'0 0.1
2018-Jun-20 20:00N 40°43' W 074°01'0 0.1
2018-Jun-20 19:30N 40°43' W 074°01'0 0.0
2018-Jun-20 19:00N 40°43' W 074°01'0 0.0
2018-Jun-20 18:30N 40°43' W 074°01'0 0.0
2018-Jun-20 18:01N 40°43' W 074°01'0 0.0
2018-Jun-20 17:31N 40°43' W 074°01'0 0.0
2018-Jun-20 17:01N 40°43' W 074°01'0 0.0
2018-Jun-20 16:31N 40°43' W 074°01'0 0.0
2018-Jun-20 16:01N 40°43' W 074°01'0 0.0
2018-Jun-20 15:30N 40°43' W 074°01'0 0.0
2018-Jun-20 15:00N 40°43' W 074°01'0 0.0
2018-Jun-20 14:30N 40°43' W 074°01'0 0.0
2018-Jun-20 14:00N 40°43' W 074°01'0 0.0
2018-Jun-20 13:30N 40°43' W 074°01'0 0.1
2018-Jun-20 13:00N 40°43' W 074°01'0 0.1
2018-Jun-20 12:30N 40°43' W 074°01'0 0.0
2018-Jun-20 12:00N 40°43' W 074°01'0 0.0
2018-Jun-20 11:30N 40°43' W 074°01'0 0.0
2018-Jun-20 11:00N 40°43' W 074°01'0 0.0
2018-Jun-20 10:31N 40°43' W 074°01'1 2.6
2018-Jun-20 10:00N 40°44' W 074°02'0 0.0
2018-Jun-20 00:25N 40°44' W 074°02'2 3.7
2018-Jun-19 23:48N 40°46' W 074°01'411.8
2018-Jun-19 23:30N 40°43' W 074°02'0 0.3
2018-Jun-19 23:00N 40°43' W 074°02'0 0.1
2018-Jun-19 22:30N 40°43' W 074°02'0 0.1
2018-Jun-19 22:00N 40°43' W 074°02'0 0.0
2018-Jun-19 21:30N 40°43' W 074°02'0 0.1
2018-Jun-19 21:00N 40°43' W 074°02'0 0.1
2018-Jun-19 20:30N 40°43' W 074°02'0 0.1
2018-Jun-19 20:00N 40°43' W 074°02'0 0.1
2018-Jun-19 19:30N 40°43' W 074°02'0 0.1
2018-Jun-19 19:00N 40°43' W 074°02'0 0.1
2018-Jun-19 18:30N 40°43' W 074°02'0 0.1
2018-Jun-19 18:00N 40°43' W 074°02'0 0.0
2018-Jun-19 17:30N 40°43' W 074°02'0 0.0
2018-Jun-19 17:00N 40°43' W 074°02'0 0.1
2018-Jun-19 16:30N 40°43' W 074°02'0 0.1
2018-Jun-19 16:00N 40°43' W 074°02'0 0.1
2018-Jun-19 15:30N 40°43' W 074°02'0 0.0
2018-Jun-19 15:00N 40°43' W 074°02'0 0.1
2018-Jun-19 14:30N 40°43' W 074°02'0 0.0
2018-Jun-19 14:00N 40°43' W 074°02'0 0.0
2018-Jun-19 13:30N 40°43' W 074°02'0 0.1
2018-Jun-19 13:00N 40°43' W 074°02'0 0.0
2018-Jun-19 12:30N 40°43' W 074°02'0 0.0
2018-Jun-19 12:00N 40°43' W 074°02'0 0.2
2018-Jun-19 11:30N 40°43' W 074°02'0 0.0
2018-Jun-19 11:00N 40°43' W 074°02'0 0.2
2018-Jun-19 10:30N 40°43' W 074°02'0 0.0
2018-Jun-19 10:00N 40°43' W 074°02'1 0.2
2018-Jun-19 03:09N 40°44' W 074°02'1 8.8
2018-Jun-19 03:01N 40°43' W 074°01'0 1.0
2018-Jun-19 02:30N 40°43' W 074°02'0 0.9
2018-Jun-19 02:00N 40°43' W 074°01'1 1.0
2018-Jun-19 01:30N 40°43' W 074°02'0 1.0
2018-Jun-19 01:00N 40°43' W 074°01'0 1.0
2018-Jun-19 00:31N 40°43' W 074°02'0 0.9
2018-Jun-19 00:01N 40°43' W 074°01'1 1.1
2018-Jun-18 23:31N 40°43' W 074°02'0 0.1
2018-Jun-18 23:00N 40°43' W 074°02'0 0.2
2018-Jun-18 22:30N 40°43' W 074°02'0 0.1
2018-Jun-18 22:00N 40°43' W 074°02'0 0.1
2018-Jun-18 21:30N 40°43' W 074°02'0 0.0
2018-Jun-18 21:01N 40°43' W 074°02'0 0.0
2018-Jun-18 20:31N 40°43' W 074°02'0 0.0
2018-Jun-18 20:01N 40°43' W 074°02'0 0.1
2018-Jun-18 19:30N 40°43' W 074°02'0 0.1
2018-Jun-18 19:00N 40°43' W 074°02'0 0.9
2018-Jun-18 18:30N 40°43' W 074°01'3 6.4
2018-Jun-18 17:59N 40°46' W 074°01'0 0.0
2018-Jun-18 00:57N 40°46' W 074°01'  
2018-Jun-15 19:55N 40°46' W 074°01'0 0.0
2018-Jun-15 19:11N 40°46' W 074°01'0 0.0
2018-Jun-15 18:59N 40°46' W 074°01'0 0.0
2018-Jun-15 18:20N 40°46' W 074°01'0 0.0
2018-Jun-15 18:00N 40°46' W 074°01'0 0.0
2018-Jun-15 17:28N 40°46' W 074°01'0 0.0
2018-Jun-15 17:00N 40°46' W 074°01'0 0.0
2018-Jun-15 16:29N 40°46' W 074°01'0 0.0
2018-Jun-15 15:59N 40°46' W 074°01'0 0.0
2018-Jun-15 15:17N 40°46' W 074°01'0 0.0
2018-Jun-15 14:58N 40°46' W 074°01'0 0.0
2018-Jun-15 14:07N 40°46' W 074°01'0 0.0
2018-Jun-15 12:59N 40°46' W 074°01'4 7.4
2018-Jun-15 12:30N 40°43' W 074°02'0 0.0
2018-Jun-15 12:00N 40°43' W 074°02'0 0.0
2018-Jun-15 11:30N 40°43' W 074°02'0 0.2
2018-Jun-15 11:01N 40°43' W 074°02'0 0.1
2018-Jun-15 10:30N 40°43' W 074°02'0 0.1
2018-Jun-15 10:00N 40°43' W 074°02'1 0.2
2018-Jun-15 03:10N 40°44' W 074°02'1 7.8
2018-Jun-15 03:00N 40°43' W 074°01'1 1.1
2018-Jun-15 02:30N 40°43' W 074°02'1 1.1
2018-Jun-15 02:00N 40°43' W 074°01'1 1.1
2018-Jun-15 01:30N 40°43' W 074°02'1 1.3
2018-Jun-15 01:00N 40°43' W 074°01'1 1.2
2018-Jun-15 00:30N 40°43' W 074°02'1 1.3
2018-Jun-15 00:00N 40°43' W 074°01'0 0.1
2018-Jun-14 23:30N 40°43' W 074°01'0 0.1
2018-Jun-14 23:00N 40°43' W 074°01'0 0.0
2018-Jun-14 22:30N 40°43' W 074°01'0 0.1
2018-Jun-14 22:00N 40°43' W 074°01'0 0.0
2018-Jun-14 21:30N 40°43' W 074°01'0 0.1
2018-Jun-14 21:00N 40°43' W 074°01'0 0.1
2018-Jun-14 20:30N 40°43' W 074°01'0 0.1
2018-Jun-14 20:00N 40°43' W 074°01'0 0.0
2018-Jun-14 19:31N 40°43' W 074°01'0 0.1
2018-Jun-14 19:00N 40°43' W 074°01'0 0.1
2018-Jun-14 18:30N 40°43' W 074°01'0 0.0
2018-Jun-14 18:00N 40°43' W 074°01'0 0.0
2018-Jun-14 17:30N 40°43' W 074°01'0 0.0
2018-Jun-14 17:00N 40°43' W 074°01'0 0.0
2018-Jun-14 16:30N 40°43' W 074°01'0 0.0
2018-Jun-14 16:00N 40°43' W 074°01'0 0.0
2018-Jun-14 15:30N 40°43' W 074°01'0 0.0
2018-Jun-14 15:00N 40°43' W 074°01'0 0.0
2018-Jun-14 14:30N 40°43' W 074°01'0 0.0
2018-Jun-14 14:00N 40°43' W 074°01'0 0.0
2018-Jun-14 13:30N 40°43' W 074°01'0 0.0
2018-Jun-14 13:00N 40°43' W 074°01'0 0.1
2018-Jun-14 12:30N 40°43' W 074°01'0 0.0
2018-Jun-14 12:00N 40°43' W 074°01'0 0.0
2018-Jun-14 11:30N 40°43' W 074°01'0 0.0
2018-Jun-14 11:00N 40°43' W 074°01'0 0.0
2018-Jun-14 10:30N 40°43' W 074°01'1 2.6
2018-Jun-14 10:00N 40°44' W 074°02'0 0.0
2018-Jun-14 00:29N 40°44' W 074°02'2 4.6
2018-Jun-14 00:00N 40°46' W 074°01'4 7.2
2018-Jun-13 23:30N 40°43' W 074°02'0 0.1
2018-Jun-13 23:00N 40°43' W 074°02'0 0.1
2018-Jun-13 22:30N 40°43' W 074°02'0 0.1
2018-Jun-13 22:00N 40°43' W 074°02'0 0.1
2018-Jun-13 21:31N 40°43' W 074°02'0 0.1
2018-Jun-13 21:01N 40°43' W 074°02'0 0.0
2018-Jun-13 20:31N 40°43' W 074°02'0 0.0
2018-Jun-13 20:00N 40°43' W 074°02'0 0.1
2018-Jun-13 19:30N 40°43' W 074°02'0 0.1
2018-Jun-13 19:00N 40°43' W 074°02'0 0.0
2018-Jun-13 18:30N 40°43' W 074°02'0 0.1
2018-Jun-13 18:00N 40°43' W 074°02'0 0.2
2018-Jun-13 17:30N 40°43' W 074°02'0 0.1
2018-Jun-13 17:01N 40°43' W 074°02'0 0.1
2018-Jun-13 16:31N 40°43' W 074°02'0 0.1
2018-Jun-13 16:01N 40°43' W 074°02'0 0.0
2018-Jun-13 15:30N 40°43' W 074°02'0 0.1
2018-Jun-13 15:01N 40°43' W 074°02'0 0.0
2018-Jun-13 14:30N 40°43' W 074°02'0 0.0
2018-Jun-13 14:00N 40°43' W 074°02'0 0.2
2018-Jun-13 13:30N 40°43' W 074°02'0 0.1
2018-Jun-13 13:00N 40°43' W 074°02'0 0.2
2018-Jun-13 12:30N 40°43' W 074°02'0 0.0
2018-Jun-13 12:00N 40°43' W 074°02'0 0.1
2018-Jun-13 11:30N 40°43' W 074°02'0 0.1
2018-Jun-13 11:00N 40°43' W 074°02'0 0.1
2018-Jun-13 10:30N 40°43' W 074°02'0 0.1
2018-Jun-13 10:00N 40°43' W 074°02'1 0.2
2018-Jun-13 03:11N 40°44' W 074°02'1 7.5
2018-Jun-13 03:00N 40°43' W 074°01'0 0.9
2018-Jun-13 02:30N 40°43' W 074°02'0 1.0
2018-Jun-13 02:01N 40°43' W 074°01'1 1.2
2018-Jun-13 01:30N 40°43' W 074°02'1 1.3
2018-Jun-13 01:00N 40°43' W 074°01'0 1.0
2018-Jun-13 00:31N 40°43' W 074°02'0 1.0
2018-Jun-13 00:00N 40°43' W 074°01'0 0.1
2018-Jun-12 23:31N 40°43' W 074°01'0 0.1
2018-Jun-12 23:01N 40°43' W 074°01'0 0.0
2018-Jun-12 22:30N 40°43' W 074°01'0 0.0
2018-Jun-12 22:00N 40°43' W 074°01'0 0.1
2018-Jun-12 21:30N 40°43' W 074°01'0 0.1
2018-Jun-12 21:01N 40°43' W 074°01'1 1.8
2018-Jun-12 20:30N 40°44' W 074°01'0 0.7
2018-Jun-12 20:00N 40°44' W 074°02'0 0.0
2018-Jun-12 19:26N 40°44' W 074°02'0 0.0
2018-Jun-12 19:00N 40°44' W 074°02'1 2.3
2018-Jun-12 18:30N 40°43' W 074°02'1 1.2
2018-Jun-12 18:00N 40°43' W 074°01'0 0.0
2018-Jun-12 17:30N 40°43' W 074°01'0 0.0
2018-Jun-12 17:00N 40°43' W 074°01'0 0.0
2018-Jun-12 16:30N 40°43' W 074°01'0 0.0
2018-Jun-12 16:00N 40°43' W 074°01'0 0.0
2018-Jun-12 15:30N 40°43' W 074°01'0 0.0
2018-Jun-12 15:00N 40°43' W 074°01'0 0.0
2018-Jun-12 14:30N 40°43' W 074°01'0 0.0
2018-Jun-12 14:00N 40°43' W 074°01'0 0.0
2018-Jun-12 13:30N 40°43' W 074°01'0 0.0
2018-Jun-12 13:00N 40°43' W 074°01'0 0.0
2018-Jun-12 12:30N 40°43' W 074°01'0 0.0
2018-Jun-12 12:00N 40°43' W 074°01'0 0.0
2018-Jun-12 11:30N 40°43' W 074°01'0 0.0
2018-Jun-12 11:00N 40°43' W 074°01'0 0.0
2018-Jun-12 10:30N 40°43' W 074°01'1 2.6
2018-Jun-12 10:00N 40°44' W 074°02'0 0.0
2018-Jun-12 00:49N 40°44' W 074°02'2 6.7
2018-Jun-12 00:29N 40°46' W 074°01'  

Dump ship's entire track history